Time;durP1;ratioP1;P1;durP2;ratioP2;P2;SDS_P1;SDS_P2;PMS_P1;PMS_P2;Temp;Humidity;BMP_temperature;BMP_pressure;BME280_temperature;BME280_humidity;BME280_pressure;Samples;Min_cycle;Max_cycle;Signal;HPM_P1;HPM_P2
2023/07/22 00:01:49;;;;;;;11.07;6.18;;;13.90;99.90;;;;;;5070553;28;20037;-79
2023/07/22 00:04:15;;;;;;;13.02;7.00;;;13.90;99.90;;;;;;5053244;28;20052;-78
2023/07/22 00:06:40;;;;;;;11.90;6.80;;;13.80;99.90;;;;;;5036636;28;20056;-79
2023/07/22 00:09:06;;;;;;;11.50;6.70;;;13.80;99.90;;;;;;5052678;28;20037;-79
2023/07/22 00:11:32;;;;;;;13.18;6.68;;;13.70;99.90;;;;;;5054300;28;20112;-78
2023/07/22 00:13:58;;;;;;;12.40;7.03;;;13.70;99.90;;;;;;5063069;28;20040;-79
2023/07/22 00:16:24;;;;;;;12.07;6.63;;;13.80;99.90;;;;;;5073048;28;20044;-81
2023/07/22 00:18:50;;;;;;;12.32;6.35;;;13.70;99.90;;;;;;5068373;28;20132;-80
2023/07/22 00:21:15;;;;;;;13.48;6.50;;;13.80;99.90;;;;;;5054190;28;20045;-79
2023/07/22 00:23:41;;;;;;;11.13;6.20;;;13.80;99.90;;;;;;5080425;28;20040;-78
2023/07/22 00:26:07;;;;;;;11.32;5.82;;;13.80;99.90;;;;;;5072750;28;20044;-79
2023/07/22 00:28:32;;;;;;;12.13;6.32;;;13.70;99.90;;;;;;5070793;28;20060;-79
2023/07/22 00:30:58;;;;;;;9.82;5.93;;;13.70;99.90;;;;;;5069379;28;20084;-80
2023/07/22 00:33:24;;;;;;;11.05;5.70;;;13.70;99.90;;;;;;5077365;28;20044;-79
2023/07/22 00:35:50;;;;;;;11.85;6.40;;;13.70;99.90;;;;;;5072969;28;20036;-78
2023/07/22 00:38:16;;;;;;;11.38;5.60;;;13.70;99.90;;;;;;5072510;28;20477;-77
2023/07/22 00:40:43;;;;;;;10.40;5.28;;;13.60;99.90;;;;;;5073759;28;20097;-77
2023/07/22 00:43:09;;;;;;;10.65;5.90;;;13.60;99.90;;;;;;5055768;28;20045;-78
2023/07/22 00:45:34;;;;;;;12.40;6.03;;;13.60;99.90;;;;;;5051995;28;20045;-79
2023/07/22 00:48:00;;;;;;;12.10;6.53;;;13.60;99.90;;;;;;5035321;28;20033;-78
2023/07/22 00:50:27;;;;;;;12.13;5.47;;;13.60;99.90;;;;;;5052456;28;20041;-79
2023/07/22 00:52:52;;;;;;;12.02;5.68;;;13.60;99.90;;;;;;5056435;28;20115;-77
2023/07/22 00:55:18;;;;;;;12.48;6.38;;;13.50;99.90;;;;;;5056459;28;20167;-78
2023/07/22 00:57:44;;;;;;;13.18;6.40;;;13.50;99.90;;;;;;5056743;28;20477;-78
2023/07/22 01:00:11;;;;;;;12.48;5.93;;;13.60;99.90;;;;;;5053141;28;20040;-78
2023/07/22 01:02:39;;;;;;;11.75;6.70;;;13.70;99.90;;;;;;5053858;28;20040;-78
2023/07/22 01:05:05;;;;;;;10.75;6.25;;;13.70;99.90;;;;;;5075703;28;20545;-77
2023/07/22 01:07:31;;;;;;;11.27;6.03;;;13.70;99.90;;;;;;5052829;28;20095;-77
2023/07/22 01:09:58;;;;;;;11.90;5.97;;;13.60;99.90;;;;;;5034901;28;20037;-77
2023/07/22 01:12:24;;;;;;;10.15;5.68;;;13.60;99.90;;;;;;5053083;28;20033;-77
2023/07/22 01:14:50;;;;;;;10.55;5.90;;;13.50;99.90;;;;;;5071408;28;20071;-77
2023/07/22 01:17:16;;;;;;;12.88;6.10;;;13.50;99.90;;;;;;5063256;28;20064;-77
2023/07/22 01:19:42;;;;;;;10.40;5.57;;;13.40;99.90;;;;;;5053217;28;20041;-77
2023/07/22 01:22:09;;;;;;;10.60;5.80;;;13.40;99.90;;;;;;5053055;28;20041;-77
2023/07/22 01:24:35;;;;;;;9.77;5.82;;;13.40;99.90;;;;;;5051451;28;20044;-80
2023/07/22 01:27:03;;;;;;;9.23;5.43;;;13.30;99.90;;;;;;5072200;28;20392;-79
2023/07/22 01:29:28;;;;;;;11.05;5.63;;;13.30;99.90;;;;;;5070431;28;20105;-79
2023/07/22 01:31:55;;;;;;;11.45;5.55;;;13.30;99.90;;;;;;5071863;28;20044;-78
2023/07/22 01:34:22;;;;;;;10.63;5.80;;;13.30;99.90;;;;;;5064664;28;20041;-78
2023/07/22 01:36:48;;;;;;;10.75;6.00;;;13.20;99.90;;;;;;5053184;28;20056;-78
2023/07/22 01:39:14;;;;;;;10.52;5.85;;;13.20;99.90;;;;;;5064732;28;20078;-77
2023/07/22 01:41:41;;;;;;;12.60;5.75;;;13.20;99.90;;;;;;5088795;28;20040;-77
2023/07/22 01:44:07;;;;;;;10.18;5.32;;;13.10;99.90;;;;;;5071700;28;20040;-77
2023/07/22 01:46:33;;;;;;;9.63;5.45;;;13.20;99.90;;;;;;5085749;28;20093;-77
2023/07/22 01:48:58;;;;;;;10.80;5.30;;;13.20;99.90;;;;;;5064497;28;20037;-77
2023/07/22 01:51:25;;;;;;;8.65;4.88;;;13.20;99.90;;;;;;5065629;28;20029;-77
2023/07/22 01:53:51;;;;;;;10.38;5.68;;;13.20;99.90;;;;;;5070521;28;20033;-77
2023/07/22 01:56:16;;;;;;;10.25;5.25;;;13.10;99.90;;;;;;5071905;28;20041;-76
2023/07/22 01:58:42;;;;;;;9.85;5.35;;;13.10;99.90;;;;;;5073021;28;20052;-76
2023/07/22 02:01:08;;;;;;;9.38;5.35;;;13.20;99.90;;;;;;5064171;28;20445;-77
2023/07/22 02:03:33;;;;;;;10.70;5.93;;;13.20;99.90;;;;;;5068433;28;20485;-76
2023/07/22 02:06:05;;;;;;;10.23;5.63;;;13.20;99.90;;;;;;5055043;28;20119;-77
2023/07/22 02:08:31;;;;;;;10.38;5.78;;;13.20;99.90;;;;;;5071427;28;20045;-77
2023/07/22 02:11:06;;;;;;;9.57;5.43;;;13.20;99.90;;;;;;5066959;28;20447;-77
2023/07/22 02:13:32;;;;;;;10.32;5.57;;;13.10;99.90;;;;;;5052662;28;20389;-77
2023/07/22 02:15:58;;;;;;;10.30;5.57;;;13.10;99.90;;;;;;5072820;28;20032;-77
2023/07/22 02:18:24;;;;;;;10.73;5.30;;;13.10;99.90;;;;;;5072652;28;20040;-77
2023/07/22 02:20:50;;;;;;;11.07;5.53;;;13.10;99.90;;;;;;5070537;28;20123;-77
2023/07/22 02:23:15;;;;;;;10.70;5.72;;;13.10;99.90;;;;;;5070399;28;20045;-77
2023/07/22 02:25:41;;;;;;;9.43;5.30;;;13.00;99.90;;;;;;5071592;28;20523;-77
2023/07/22 02:28:07;;;;;;;11.43;5.40;;;13.00;99.90;;;;;;5072441;28;20103;-77
2023/07/22 02:30:36;;;;;;;7.38;3.70;;;13.00;99.90;;;;;;5070082;28;20115;-77
2023/07/22 02:33:02;;;;;;;8.63;4.30;;;13.00;99.90;;;;;;5034604;28;20033;-77
2023/07/22 02:35:28;;;;;;;9.32;4.57;;;13.00;99.90;;;;;;5083976;28;20037;-77
2023/07/22 02:37:54;;;;;;;9.02;4.22;;;13.00;99.90;;;;;;5076172;28;20052;-77
2023/07/22 02:40:20;;;;;;;7.65;3.80;;;13.00;99.90;;;;;;5075489;28;20044;-77
2023/07/22 02:42:45;;;;;;;8.20;3.78;;;12.90;99.90;;;;;;5075983;28;20404;-77
2023/07/22 02:45:12;;;;;;;7.30;3.83;;;12.80;99.90;;;;;;5074897;28;20044;-77
2023/07/22 02:47:38;;;;;;;9.00;4.53;;;12.70;99.90;;;;;;5058218;28;20046;-77
2023/07/22 02:50:06;;;;;;;9.10;4.88;;;12.70;99.90;;;;;;5074967;28;20370;-77
2023/07/22 02:52:32;;;;;;;9.43;4.70;;;12.70;99.90;;;;;;5038690;28;20040;-77
2023/07/22 02:55:12;;;;;;;8.23;4.53;;;12.60;99.90;;;;;;5065063;28;20477;-76
2023/07/22 02:57:38;;;;;;;9.65;4.97;;;12.60;99.90;;;;;;5074672;28;20047;-77
2023/07/22 03:00:08;;;;;;;8.82;4.82;;;12.70;99.90;;;;;;5074448;28;20058;-77
2023/07/22 03:02:34;;;;;;;7.90;4.25;;;12.60;99.90;;;;;;5074742;28;20048;-77
2023/07/22 03:05:00;;;;;;;7.32;3.85;;;12.60;99.90;;;;;;5056916;28;20036;-77
2023/07/22 03:07:27;;;;;;;9.13;3.78;;;12.60;99.90;;;;;;5057651;28;20476;-77
2023/07/22 03:09:53;;;;;;;8.63;3.88;;;12.60;99.90;;;;;;5057047;28;20041;-77
2023/07/22 03:12:18;;;;;;;6.63;3.47;;;12.50;99.90;;;;;;5075522;28;20085;-77
2023/07/22 03:14:44;;;;;;;7.53;3.80;;;12.50;99.90;;;;;;5073010;28;20120;-77
2023/07/22 03:17:09;;;;;;;8.23;3.72;;;12.50;99.90;;;;;;5074452;28;20039;-77
2023/07/22 03:19:35;;;;;;;7.28;3.50;;;12.60;99.90;;;;;;5091003;28;20576;-77
2023/07/22 03:22:01;;;;;;;6.40;2.92;;;12.60;99.90;;;;;;5073190;28;20618;-77
2023/07/22 03:24:26;;;;;;;7.78;3.53;;;12.50;99.90;;;;;;5074140;28;20123;-77
2023/07/22 03:26:52;;;;;;;8.02;3.97;;;12.50;99.90;;;;;;5073994;28;20090;-77
2023/07/22 03:29:17;;;;;;;8.43;4.20;;;12.50;99.90;;;;;;5073769;28;20060;-77
2023/07/22 03:31:43;;;;;;;9.10;4.63;;;12.50;99.90;;;;;;5062972;28;20083;-76
2023/07/22 03:34:09;;;;;;;9.77;4.70;;;12.50;99.90;;;;;;5056774;28;20040;-77
2023/07/22 03:36:34;;;;;;;9.68;4.70;;;12.50;99.90;;;;;;5053239;28;20052;-77
2023/07/22 03:39:00;;;;;;;10.13;5.35;;;12.50;99.90;;;;;;5053780;28;20144;-77
2023/07/22 03:41:26;;;;;;;10.23;5.35;;;12.40;99.90;;;;;;5064909;28;20040;-76
2023/07/22 03:43:51;;;;;;;10.23;5.22;;;12.40;99.90;;;;;;5073613;28;20404;-76
2023/07/22 03:46:17;;;;;;;9.52;4.82;;;12.50;99.90;;;;;;5055802;28;20408;-77
2023/07/22 03:48:43;;;;;;;9.07;4.03;;;12.50;99.90;;;;;;5073561;28;20107;-77
2023/07/22 03:51:08;;;;;;;11.98;4.32;;;12.50;99.90;;;;;;5072178;28;20106;-77
2023/07/22 03:53:34;;;;;;;8.90;4.15;;;12.40;99.90;;;;;;5073867;28;20044;-77
2023/07/22 03:55:59;;;;;;;12.88;4.95;;;12.40;99.90;;;;;;5073377;28;20511;-77
2023/07/22 03:58:25;;;;;;;10.57;4.78;;;12.40;99.90;;;;;;5074726;28;20476;-77
2023/07/22 04:00:51;;;;;;;10.75;4.85;;;12.40;99.90;;;;;;5055331;28;20162;-77
2023/07/22 04:03:16;;;;;;;11.32;4.80;;;12.50;99.90;;;;;;5090113;28;20492;-77
2023/07/22 04:05:42;;;;;;;10.13;5.13;;;12.40;99.90;;;;;;5071450;28;20048;-77
2023/07/22 04:08:07;;;;;;;13.68;6.68;;;12.40;99.90;;;;;;5074497;28;20040;-77
2023/07/22 04:10:33;;;;;;;10.68;5.20;;;12.50;99.90;;;;;;5073267;28;20036;-77
2023/07/22 04:12:58;;;;;;;11.52;5.68;;;12.50;99.90;;;;;;5056511;28;20036;-77
2023/07/22 04:15:24;;;;;;;11.68;6.55;;;12.50;99.90;;;;;;5072997;28;20044;-77
2023/07/22 04:17:50;;;;;;;12.52;5.85;;;12.50;99.90;;;;;;5074471;28;20043;-77
2023/07/22 04:20:16;;;;;;;12.02;6.32;;;12.60;99.90;;;;;;5071437;28;20048;-77
2023/07/22 04:22:42;;;;;;;10.10;5.55;;;12.60;99.90;;;;;;5072858;28;20048;-76
2023/07/22 04:25:08;;;;;;;10.80;5.53;;;12.50;99.90;;;;;;5074124;28;20119;-77
2023/07/22 04:27:34;;;;;;;12.45;6.30;;;12.60;99.90;;;;;;5054685;28;20049;-76
2023/07/22 04:30:00;;;;;;;11.90;6.32;;;12.60;99.90;;;;;;5054037;28;20060;-76
2023/07/22 04:32:26;;;;;;;10.52;6.22;;;12.60;99.90;;;;;;5072622;28;20039;-77
2023/07/22 04:34:51;;;;;;;11.18;5.95;;;12.60;99.90;;;;;;5072772;28;20477;-76
2023/07/22 04:37:17;;;;;;;11.43;6.07;;;12.60;99.90;;;;;;5073010;28;20124;-77
2023/07/22 04:39:46;;;;;;;13.40;7.03;;;12.70;99.90;;;;;;5072555;28;20052;-77
2023/07/22 04:42:11;;;;;;;13.50;7.60;;;12.70;99.90;;;;;;5054794;28;20040;-77
2023/07/22 04:44:37;;;;;;;13.15;7.53;;;12.80;99.90;;;;;;5073584;28;20090;-76
2023/07/22 04:47:03;;;;;;;12.82;7.65;;;12.80;99.90;;;;;;5088370;28;20079;-77
2023/07/22 04:49:28;;;;;;;13.57;7.35;;;12.80;99.90;;;;;;5073703;28;20059;-76
2023/07/22 04:51:54;;;;;;;12.23;6.93;;;12.80;99.90;;;;;;5065559;28;20040;-77
2023/07/22 04:54:19;;;;;;;13.68;7.20;;;12.80;99.90;;;;;;5069719;28;20033;-77
2023/07/22 04:56:45;;;;;;;14.30;7.38;;;12.90;99.90;;;;;;5060248;28;20040;-77
2023/07/22 04:59:11;;;;;;;15.98;7.50;;;13.00;99.90;;;;;;5072819;28;20094;-77
2023/07/22 05:01:37;;;;;;;12.50;7.70;;;13.00;99.90;;;;;;5073476;28;20400;-77
2023/07/22 05:04:03;;;;;;;13.70;7.38;;;13.10;99.90;;;;;;5089155;28;20047;-77
2023/07/22 05:06:29;;;;;;;13.85;7.68;;;13.10;99.90;;;;;;5055708;28;20485;-77
2023/07/22 05:08:54;;;;;;;12.30;7.63;;;13.10;99.90;;;;;;5057026;28;20047;-77
2023/07/22 05:11:20;;;;;;;14.93;8.27;;;13.10;99.90;;;;;;5072332;28;20059;-77
2023/07/22 05:13:46;;;;;;;18.85;8.80;;;13.10;99.90;;;;;;5072084;28;20118;-77
2023/07/22 05:16:11;;;;;;;18.80;8.48;;;13.20;99.90;;;;;;5062885;28;20072;-77
2023/07/22 05:18:38;;;;;;;14.90;7.82;;;13.30;99.90;;;;;;5057580;28;20378;-78
2023/07/22 05:21:04;;;;;;;15.98;9.38;;;13.30;99.90;;;;;;5052786;28;20170;-77
2023/07/22 05:23:29;;;;;;;15.25;8.70;;;13.40;99.90;;;;;;5072008;28;20123;-77
2023/07/22 05:25:55;;;;;;;15.95;9.25;;;13.40;99.90;;;;;;5071842;28;20122;-77
2023/07/22 05:28:20;;;;;;;14.95;8.68;;;13.40;99.90;;;;;;5054844;28;20051;-77
2023/07/22 05:30:46;;;;;;;14.73;8.07;;;13.50;99.90;;;;;;5054407;28;20067;-77
2023/07/22 05:33:13;;;;;;;13.98;9.05;;;13.50;99.90;;;;;;5072034;28;20090;-78
2023/07/22 05:35:38;;;;;;;16.35;9.43;;;13.50;99.90;;;;;;5069308;28;20427;-78
2023/07/22 05:38:04;;;;;;;16.02;9.23;;;13.50;99.90;;;;;;5053135;28;20053;-78
2023/07/22 05:40:30;;;;;;;16.13;8.95;;;13.50;99.90;;;;;;5052023;28;20055;-78
2023/07/22 05:42:56;;;;;;;16.92;9.20;;;13.60;99.90;;;;;;5054739;28;20049;-78
2023/07/22 05:45:22;;;;;;;15.40;8.82;;;13.70;99.90;;;;;;5077703;28;20041;-78
2023/07/22 05:47:47;;;;;;;15.05;9.05;;;13.60;99.90;;;;;;5054871;28;20044;-78
2023/07/22 05:50:13;;;;;;;14.95;8.98;;;13.70;99.90;;;;;;5069256;28;20028;-78
2023/07/22 05:52:38;;;;;;;16.83;9.15;;;13.70;99.90;;;;;;5052974;28;20396;-78
2023/07/22 05:55:04;;;;;;;18.08;9.38;;;13.80;99.90;;;;;;5055304;28;20036;-78
2023/07/22 05:57:31;;;;;;;16.63;9.77;;;13.80;99.90;;;;;;5062446;28;20040;-78
2023/07/22 05:59:56;;;;;;;17.50;10.00;;;13.90;99.90;;;;;;5072032;28;20033;-78
2023/07/22 06:02:22;;;;;;;16.42;9.80;;;13.90;99.90;;;;;;5054418;28;20052;-78
2023/07/22 06:04:48;;;;;;;17.35;9.63;;;14.00;99.90;;;;;;5068463;28;20037;-78
2023/07/22 06:07:13;;;;;;;17.48;9.02;;;14.00;99.90;;;;;;5052718;28;20118;-78
2023/07/22 06:09:39;;;;;;;15.48;9.27;;;14.10;99.90;;;;;;5053661;28;20404;-78
2023/07/22 06:12:05;;;;;;;17.00;9.70;;;14.20;99.90;;;;;;5072089;28;20445;-78
2023/07/22 06:14:30;;;;;;;16.10;10.20;;;14.30;99.90;;;;;;5083472;28;20037;-79
2023/07/22 06:16:56;;;;;;;17.00;9.68;;;14.40;99.90;;;;;;5068268;28;20039;-78
2023/07/22 06:19:23;;;;;;;15.73;9.48;;;14.40;99.90;;;;;;5073098;28;20040;-77
2023/07/22 06:21:49;;;;;;;18.52;10.68;;;14.50;99.90;;;;;;5076535;28;20097;-77
2023/07/22 06:24:15;;;;;;;19.35;10.60;;;14.60;99.90;;;;;;5076299;28;20527;-77
2023/07/22 06:26:40;;;;;;;17.55;10.15;;;14.70;99.90;;;;;;5076260;28;20082;-76
2023/07/22 06:29:06;;;;;;;16.90;10.68;;;14.80;99.90;;;;;;5076092;28;20048;-77
2023/07/22 06:31:32;;;;;;;15.90;9.80;;;14.80;99.90;;;;;;5076298;28;20112;-76
2023/07/22 06:33:59;;;;;;;17.08;10.38;;;14.80;99.90;;;;;;5074987;28;20096;-76
2023/07/22 06:36:25;;;;;;;18.58;10.15;;;14.90;99.90;;;;;;5075978;28;20526;-76
2023/07/22 06:38:51;;;;;;;18.65;10.23;;;14.90;99.90;;;;;;5075227;28;20079;-77
2023/07/22 06:41:17;;;;;;;16.38;8.85;;;15.00;99.90;;;;;;5074772;28;20079;-77
2023/07/22 06:43:43;;;;;;;17.85;10.20;;;15.10;99.90;;;;;;5076298;28;20045;-77
2023/07/22 06:46:08;;;;;;;15.10;9.20;;;15.10;99.90;;;;;;5075850;28;20097;-77
2023/07/22 06:48:34;;;;;;;18.42;10.95;;;15.10;99.90;;;;;;5075865;28;20052;-77
2023/07/22 06:51:00;;;;;;;17.80;9.68;;;15.20;99.90;;;;;;5075850;28;20032;-77
2023/07/22 06:53:25;;;;;;;16.40;10.90;;;15.20;99.90;;;;;;5076051;28;20040;-77
2023/07/22 06:55:52;;;;;;;18.23;10.88;;;15.20;99.90;;;;;;5075736;28;20028;-77
2023/07/22 06:58:19;;;;;;;17.98;10.25;;;15.20;99.90;;;;;;5074814;28;20048;-77
2023/07/22 07:00:44;;;;;;;17.90;11.30;;;15.30;99.90;;;;;;5075943;28;20051;-77
2023/07/22 07:03:11;;;;;;;17.90;10.45;;;15.30;99.90;;;;;;5075664;28;20040;-77
2023/07/22 07:05:36;;;;;;;18.52;11.18;;;15.30;99.90;;;;;;5057776;28;20059;-77
2023/07/22 07:08:02;;;;;;;17.50;10.40;;;15.50;99.90;;;;;;5057561;28;20044;-77
2023/07/22 07:10:28;;;;;;;19.00;9.95;;;15.60;99.90;;;;;;5057561;28;20111;-77
2023/07/22 07:12:53;;;;;;;17.45;9.93;;;15.60;99.90;;;;;;5074287;28;20090;-77
2023/07/22 07:15:19;;;;;;;17.13;10.80;;;15.70;99.90;;;;;;5074499;28;20035;-77
2023/07/22 07:17:44;;;;;;;18.35;10.23;;;15.70;99.90;;;;;;5074202;28;20545;-77
2023/07/22 07:20:10;;;;;;;16.13;9.57;;;15.70;99.90;;;;;;5074196;28;20033;-77
2023/07/22 07:22:36;;;;;;;17.17;10.40;;;15.80;99.90;;;;;;5090355;28;20044;-77
2023/07/22 07:25:02;;;;;;;15.85;9.85;;;15.80;99.90;;;;;;5075241;28;20120;-77
2023/07/22 07:27:27;;;;;;;16.17;9.85;;;15.80;99.90;;;;;;5074965;28;20086;-77
2023/07/22 07:29:53;;;;;;;17.95;10.57;;;15.80;99.90;;;;;;5075158;28;20485;-77
2023/07/22 07:32:19;;;;;;;15.70;9.18;;;15.80;99.90;;;;;;5075269;28;20041;-77
2023/07/22 07:34:44;;;;;;;16.23;9.32;;;15.80;99.90;;;;;;5074147;28;20127;-77
2023/07/22 07:37:10;;;;;;;17.00;9.57;;;15.80;99.90;;;;;;5075075;28;20044;-77
2023/07/22 07:39:35;;;;;;;17.13;9.70;;;15.90;99.90;;;;;;5056088;28;20032;-77
2023/07/22 07:42:01;;;;;;;16.52;8.65;;;15.90;99.90;;;;;;5067899;28;20047;-76
2023/07/22 07:44:26;;;;;;;16.38;9.95;;;16.00;99.90;;;;;;5060568;28;20041;-77
2023/07/22 07:46:52;;;;;;;15.13;9.05;;;16.10;99.90;;;;;;5071086;28;20035;-73
2023/07/22 07:49:17;;;;;;;17.10;9.02;;;16.20;99.90;;;;;;5045749;28;20067;-73
2023/07/22 07:51:43;;;;;;;14.48;9.10;;;16.40;99.90;;;;;;5071045;28;20032;-78
2023/07/22 07:54:09;;;;;;;14.98;8.20;;;16.60;99.90;;;;;;5055557;28;20397;-77
2023/07/22 07:56:34;;;;;;;13.38;8.25;;;16.80;99.90;;;;;;5055966;28;20082;-77
2023/07/22 07:59:02;;;;;;;15.35;7.90;;;16.90;99.90;;;;;;5061416;28;20028;-77
2023/07/22 08:01:27;;;;;;;15.00;7.70;;;17.00;99.90;;;;;;5073807;28;20412;-77
2023/07/22 08:03:54;;;;;;;13.55;7.97;;;17.10;99.90;;;;;;5073746;28;20047;-77
2023/07/22 08:06:19;;;;;;;13.23;7.43;;;17.10;99.90;;;;;;5081942;28;20036;-77
2023/07/22 08:08:45;;;;;;;14.48;7.30;;;17.20;99.90;;;;;;5069295;28;20127;-77
2023/07/22 08:11:13;;;;;;;13.73;7.15;;;17.20;99.90;;;;;;5054279;28;20427;-77
2023/07/22 08:13:39;;;;;;;11.40;6.80;;;17.40;99.90;;;;;;5057581;28;20102;-77
2023/07/22 08:16:08;;;;;;;12.43;7.75;;;17.50;99.90;;;;;;5066825;28;20032;-77
2023/07/22 08:18:35;;;;;;;11.07;6.45;;;17.50;99.90;;;;;;5071528;28;20044;-77
2023/07/22 08:21:02;;;;;;;13.05;8.15;;;17.60;99.90;;;;;;5072941;28;20093;-77
2023/07/22 08:23:28;;;;;;;12.95;7.03;;;17.70;99.90;;;;;;5064784;28;20048;-77
2023/07/22 08:25:54;;;;;;;12.63;7.28;;;17.80;99.90;;;;;;5056455;28;20043;-77
2023/07/22 08:28:19;;;;;;;12.13;7.60;;;17.80;99.90;;;;;;5063381;28;20048;-77
2023/07/22 08:30:45;;;;;;;12.40;7.43;;;17.80;99.90;;;;;;5036069;28;20094;-77
2023/07/22 08:33:11;;;;;;;14.75;8.40;;;17.80;99.90;;;;;;5065440;28;20564;-77
2023/07/22 08:35:38;;;;;;;12.43;8.00;;;17.80;99.90;;;;;;5055141;28;20072;-77
2023/07/22 08:38:03;;;;;;;12.73;7.57;;;17.80;99.90;;;;;;5056792;28;20508;-77
2023/07/22 08:40:41;;;;;;;16.65;9.65;;;17.90;99.90;;;;;;5072014;28;20040;-77
2023/07/22 08:43:09;;;;;;;14.88;8.52;;;17.80;99.90;;;;;;5072117;28;20070;-77
2023/07/22 08:45:38;;;;;;;17.83;9.75;;;17.90;99.90;;;;;;5060014;28;20090;-77
2023/07/22 08:48:07;;;;;;;16.65;9.80;;;17.90;99.90;;;;;;5072202;28;20484;-77
2023/07/22 08:50:52;;;;;;;14.85;9.15;;;17.90;99.90;;;;;;5081917;28;20076;-77
2023/07/22 08:53:19;;;;;;;12.95;8.18;;;18.00;99.90;;;;;;5053742;28;20037;-77
2023/07/22 08:55:45;;;;;;;12.68;7.90;;;17.90;99.90;;;;;;5053700;28;20055;-77
2023/07/22 08:58:11;;;;;;;15.70;9.38;;;17.90;99.90;;;;;;5052089;28;20417;-77
2023/07/22 09:00:38;;;;;;;15.13;9.50;;;17.80;99.90;;;;;;5058648;28;20531;-77
2023/07/22 09:03:04;;;;;;;15.10;8.45;;;17.80;99.90;;;;;;5060568;28;20477;-77
2023/07/22 09:05:34;;;;;;;14.93;8.60;;;17.80;99.90;;;;;;5069359;28;20040;-77
2023/07/22 09:08:03;;;;;;;12.90;8.05;;;17.80;99.90;;;;;;5069056;28;20577;-77
2023/07/22 09:10:30;;;;;;;15.48;8.02;;;17.80;99.90;;;;;;5068367;28;20501;-77
2023/07/22 09:12:56;;;;;;;13.73;8.38;;;17.70;99.90;;;;;;5068718;28;20440;-77
2023/07/22 09:15:23;;;;;;;14.85;8.18;;;17.80;99.90;;;;;;5061522;28;20045;-77
2023/07/22 09:17:49;;;;;;;16.65;8.95;;;17.70;99.90;;;;;;5053017;28;20043;-77
2023/07/22 09:20:15;;;;;;;13.38;7.85;;;17.60;99.90;;;;;;5055517;28;20484;-76
2023/07/22 09:22:45;;;;;;;13.63;7.97;;;17.60;99.90;;;;;;5072251;28;20089;-77
2023/07/22 09:25:25;;;;;;;14.55;8.65;;;17.50;99.90;;;;;;5073491;28;20059;-77
2023/07/22 09:27:54;;;;;;;15.45;8.38;;;17.40;99.90;;;;;;5071132;28;20074;-76
2023/07/22 09:30:22;;;;;;;13.65;8.18;;;17.50;99.90;;;;;;5072519;28;20527;-77
2023/07/22 09:32:49;;;;;;;15.25;8.85;;;17.50;99.90;;;;;;5059655;28;20047;-77
2023/07/22 09:35:15;;;;;;;16.38;9.25;;;17.40;99.90;;;;;;5057999;28;20036;-77
2023/07/22 09:37:40;;;;;;;14.80;8.68;;;17.50;99.90;;;;;;5068406;28;20479;-77
2023/07/22 09:40:26;;;;;;;13.68;9.02;;;17.50;99.90;;;;;;5061029;28;20404;-77
2023/07/22 09:42:57;;;;;;;16.65;9.70;;;17.50;99.90;;;;;;5073069;28;20039;-77
2023/07/22 09:45:24;;;;;;;15.68;9.85;;;17.60;99.90;;;;;;5072659;28;20090;-77
2023/07/22 09:47:51;;;;;;;15.15;8.95;;;17.60;99.90;;;;;;5067703;28;20044;-77
2023/07/22 09:50:21;;;;;;;16.45;8.98;;;17.70;99.90;;;;;;5057559;28;20090;-76
2023/07/22 09:52:47;;;;;;;15.73;9.18;;;17.70;99.90;;;;;;5067393;28;20435;-76
2023/07/22 09:55:19;;;;;;;13.82;8.23;;;17.70;99.90;;;;;;5067557;28;20041;-76
2023/07/22 09:57:50;;;;;;;14.70;8.02;;;17.70;99.90;;;;;;5063667;28;20040;-77
2023/07/22 10:00:19;;;;;;;11.68;7.28;;;17.80;99.90;;;;;;5075176;28;20033;-77
2023/07/22 10:02:47;;;;;;;11.27;6.85;;;17.80;99.90;;;;;;5076557;28;20124;-76
2023/07/22 10:05:17;;;;;;;10.77;5.95;;;17.80;99.90;;;;;;5062414;28;20493;-76
2023/07/22 10:07:49;;;;;;;9.38;5.50;;;17.80;99.90;;;;;;5056694;28;20037;-76
2023/07/22 10:10:19;;;;;;;10.13;5.38;;;17.80;99.90;;;;;;5062519;28;20032;-76
2023/07/22 10:12:46;;;;;;;9.30;5.03;;;17.70;99.90;;;;;;5063885;28;20509;-76
2023/07/22 10:15:13;;;;;;;9.60;5.35;;;17.70;99.90;;;;;;5075028;28;20032;-77
2023/07/22 10:17:44;;;;;;;8.07;4.40;;;17.80;99.90;;;;;;5061102;28;20112;-77
2023/07/22 10:20:14;;;;;;;8.70;4.47;;;17.70;99.90;;;;;;5060691;28;20041;-77
2023/07/22 10:22:45;;;;;;;10.02;5.40;;;17.70;99.90;;;;;;5066996;28;20062;-76
2023/07/22 10:25:12;;;;;;;9.80;5.72;;;17.70;99.90;;;;;;5057102;28;20036;-77
2023/07/22 10:27:40;;;;;;;11.35;5.50;;;17.70;99.90;;;;;;5083909;28;20148;-77
2023/07/22 10:30:14;;;;;;;12.32;5.65;;;17.70;99.90;;;;;;5076310;28;20040;-77
2023/07/22 10:32:46;;;;;;;9.05;5.72;;;17.70;99.90;;;;;;5073017;28;20035;-77
2023/07/22 10:35:17;;;;;;;10.20;6.00;;;17.70;99.90;;;;;;5090149;28;20036;-77
2023/07/22 10:37:45;;;;;;;10.52;6.32;;;17.60;99.90;;;;;;5076343;28;20472;-76
2023/07/22 10:40:28;;;;;;;10.38;5.65;;;17.60;99.90;;;;;;5057066;28;20064;-76
2023/07/22 10:43:02;;;;;;;9.38;5.55;;;17.60;99.90;;;;;;5069709;28;20045;-76
2023/07/22 10:45:33;;;;;;;11.95;5.82;;;17.50;99.90;;;;;;5062278;28;20507;-77
2023/07/22 10:48:12;;;;;;;11.52;5.85;;;17.60;99.90;;;;;;5060303;28;20049;-76
2023/07/22 10:50:49;;;;;;;8.95;5.65;;;17.60;99.90;;;;;;5068130;28;20037;-77
2023/07/22 10:53:24;;;;;;;17.15;6.05;;;17.50;99.90;;;;;;5069726;28;20052;-76
2023/07/22 10:56:24;;;;;;;17.73;6.07;;;17.50;99.90;;;;;;5070358;28;20032;-77
2023/07/22 10:58:50;;;;;;;11.02;6.00;;;17.50;99.90;;;;;;5074130;28;20032;-72
2023/07/22 11:01:24;;;;;;;9.05;5.35;;;17.40;99.90;;;;;;5073201;28;20097;-78
2023/07/22 11:04:18;;;;;;;10.75;5.88;;;17.40;99.90;;;;;;5073326;28;20427;-78
2023/07/22 11:06:43;;;;;;;9.80;5.65;;;17.40;99.90;;;;;;5068080;28;20496;-78
2023/07/22 11:09:27;;;;;;;10.65;6.03;;;17.30;99.90;;;;;;5070697;28;20443;-78
2023/07/22 11:12:07;;;;;;;11.07;6.30;;;17.40;99.90;;;;;;5072533;28;20036;-78
2023/07/22 11:14:35;;;;;;;17.42;6.45;;;17.30;99.90;;;;;;5053831;28;20184;-78
2023/07/22 11:17:06;;;;;;;9.77;5.68;;;17.20;99.90;;;;;;5036969;28;20029;-72
2023/07/22 11:19:35;;;;;;;11.40;6.10;;;17.20;99.90;;;;;;5060477;28;20048;-73
2023/07/22 11:22:01;;;;;;;11.18;6.68;;;17.20;99.90;;;;;;5073436;28;20044;-74
2023/07/22 11:24:28;;;;;;;10.52;6.25;;;17.20;99.90;;;;;;5072032;28;20040;-71
2023/07/22 11:26:54;;;;;;;9.05;5.53;;;17.20;99.90;;;;;;5060837;28;20510;-73
2023/07/22 11:29:20;;;;;;;11.00;6.07;;;17.20;99.90;;;;;;5056326;28;20052;-76
2023/07/22 11:31:47;;;;;;;11.25;6.03;;;17.20;99.90;;;;;;5073502;28;20037;-80
2023/07/22 11:34:17;;;;;;;11.82;6.32;;;17.20;99.90;;;;;;5056241;28;20091;-80
2023/07/22 11:36:43;;;;;;;10.20;6.53;;;17.20;99.90;;;;;;5070369;28;20086;-80
2023/07/22 11:39:14;;;;;;;11.05;6.72;;;17.20;99.90;;;;;;5042804;28;20555;-80
2023/07/22 11:41:41;;;;;;;11.55;6.85;;;17.20;99.90;;;;;;5079228;28;20059;-80
2023/07/22 11:44:13;;;;;;;11.57;6.82;;;17.10;99.90;;;;;;5058001;28;20066;-80
2023/07/22 11:47:07;;;;;;;13.25;7.75;;;17.10;99.90;;;;;;5067622;28;20065;-80
2023/07/22 11:49:33;;;;;;;9.95;5.80;;;17.10;99.90;;;;;;5053420;28;20132;-81
2023/07/22 11:51:59;;;;;;;13.40;6.30;;;17.10;99.90;;;;;;5062125;28;20115;-81
2023/07/22 11:54:26;;;;;;;11.35;6.70;;;17.10;99.90;;;;;;5068413;28;20048;-80
2023/07/22 11:56:52;;;;;;;11.98;6.75;;;17.00;99.90;;;;;;5065076;28;20499;-80
2023/07/22 11:59:31;;;;;;;12.35;7.25;;;17.10;99.90;;;;;;5066025;28;20033;-80
2023/07/22 12:01:57;;;;;;;11.20;7.07;;;17.10;99.90;;;;;;5066799;28;20037;-80
2023/07/22 12:04:23;;;;;;;11.05;7.30;;;17.00;99.90;;;;;;5057649;28;20132;-81
2023/07/22 12:06:49;;;;;;;10.70;6.30;;;17.00;99.90;;;;;;5042861;28;20123;-80
2023/07/22 12:09:14;;;;;;;10.73;7.47;;;17.00;99.90;;;;;;5062193;28;20148;-81
2023/07/22 12:11:40;;;;;;;11.88;7.15;;;17.00;99.90;;;;;;5066189;28;20045;-80
2023/07/22 12:14:13;;;;;;;11.00;6.55;;;17.00;99.90;;;;;;5055652;28;20025;-80
2023/07/22 12:16:41;;;;;;;11.73;7.35;;;17.00;99.90;;;;;;5061414;28;20489;-80
2023/07/22 12:19:08;;;;;;;13.90;7.30;;;17.00;99.90;;;;;;5053686;28;20041;-80
2023/07/22 12:21:34;;;;;;;11.10;7.18;;;17.10;99.90;;;;;;5059607;28;20120;-80
2023/07/22 12:24:00;;;;;;;11.95;7.25;;;17.10;99.90;;;;;;5088898;28;20124;-80
2023/07/22 12:26:26;;;;;;;12.60;7.55;;;17.00;99.90;;;;;;5054177;28;20045;-80
2023/07/22 12:28:52;;;;;;;9.73;6.20;;;17.10;99.90;;;;;;5053163;28;20095;-80
2023/07/22 12:31:18;;;;;;;10.38;6.45;;;17.00;99.90;;;;;;5044800;28;20044;-80
2023/07/22 12:33:43;;;;;;;8.25;5.32;;;17.10;99.90;;;;;;5066435;28;20033;-80
2023/07/22 12:36:09;;;;;;;9.25;5.82;;;17.10;99.90;;;;;;5056549;28;20028;-81
2023/07/22 12:38:35;;;;;;;9.10;6.28;;;17.00;99.90;;;;;;5074794;28;20435;-81